Terminal Aerodrome Forecast
Issued by NWS Cleveland, OH

Home | Current Version | Previous Version | Text Only | Print | Product List | Glossary On
Versions: 1 2 3 4 5 6 7 8 9 10 11 12 13 14 15 16 17 18 19 20 21 22 23 24 25 26 27
000
FTUS41 KCLE 210728 AAB
TAFERI
TAF AMD
KERI 210728Z 2107/2206 VRB04KT 4SM BR SCT004 OVC012
      TEMPO 2107/2110 1SM BR OVC003
     FM211400 17010KT 4SM BR OVC015
     FM211800 18010KT P6SM BKN030=

USA.gov is the U.S. government's official web portal to all federal, state and local government web resources and services.